Terminal Aerodrome Forecast
Issued by NWS

Current Version | Previous Version | Graphics & Text | Print | Product List | Glossary On
Versions: 1 2 3 4 5 6 7 8 9 10 11 12 13 14 15 16 17
000
FTUS41 KILN 241700
TAFLCK
TAF
KLCK 241740Z 2418/2518 08007KT P6SM SCT040
     FM250000 06004KT P6SM BKN200
     FM250700 00000KT 4SM BR SCT200
     FM251300 14005KT P6SM SCT060=

USA.gov is the U.S. government's official web portal to all federal, state and local government web resources and services.